Time;durP1;ratioP1;P1;durP2;ratioP2;P2;SDS_P1;SDS_P2;PMS_P1;PMS_P2;Temp;Humidity;BMP_temperature;BMP_pressure;BME280_temperature;BME280_humidity;BME280_pressure;Samples;Min_cycle;Max_cycle;Signal;HPM_P1;HPM_P2
2021/05/27 00:00:23;;;;;;;2.42;1.30;;;10.50;99.90;;;;;;5030174;28;20418;-72
2021/05/27 00:02:50;;;;;;;1.40;1.20;;;10.40;99.90;;;;;;5029743;28;20072;-72
2021/05/27 00:05:17;;;;;;;1.35;1.25;;;10.40;99.90;;;;;;5031712;28;20053;-72
2021/05/27 00:07:44;;;;;;;1.00;0.90;;;10.40;99.90;;;;;;5031106;28;20054;-72
2021/05/27 00:10:12;;;;;;;1.35;1.20;;;10.30;99.90;;;;;;5025185;28;20520;-72
2021/05/27 00:12:39;;;;;;;1.63;1.52;;;10.40;99.90;;;;;;5031668;28;20099;-72
2021/05/27 00:15:07;;;;;;;1.40;1.20;;;10.20;99.90;;;;;;5031714;28;20052;-72
2021/05/27 00:17:33;;;;;;;3.17;1.17;;;10.20;99.90;;;;;;5031520;28;20045;-73
2021/05/27 00:19:59;;;;;;;1.88;1.38;;;10.20;99.90;;;;;;5030944;28;20095;-72
2021/05/27 00:22:26;;;;;;;1.92;1.38;;;10.10;99.90;;;;;;5031598;28;20064;-72
2021/05/27 00:24:52;;;;;;;1.50;1.40;;;10.00;99.90;;;;;;5016847;28;20069;-73
2021/05/27 00:27:18;;;;;;;1.98;1.38;;;9.90;99.90;;;;;;5012476;28;20433;-72
2021/05/27 00:29:44;;;;;;;1.40;1.30;;;9.90;99.90;;;;;;5015958;28;20053;-74
2021/05/27 00:32:10;;;;;;;3.80;1.48;;;9.90;99.90;;;;;;5021098;28;20552;-72
2021/05/27 00:34:36;;;;;;;1.42;1.33;;;9.80;99.90;;;;;;5015981;28;20048;-72
2021/05/27 00:37:03;;;;;;;1.60;1.50;;;9.80;99.90;;;;;;5015427;28;20393;-73
2021/05/27 00:39:29;;;;;;;1.98;1.83;;;9.70;99.90;;;;;;5016448;28;20050;-72
2021/05/27 00:41:57;;;;;;;1.70;1.35;;;9.70;99.90;;;;;;5034850;28;20101;-72
2021/05/27 00:44:25;;;;;;;1.48;1.35;;;9.70;99.90;;;;;;5035652;28;20094;-71
2021/05/27 00:46:52;;;;;;;2.58;1.67;;;9.60;99.90;;;;;;5034525;28;20053;-71
2021/05/27 00:49:19;;;;;;;2.45;1.88;;;9.60;99.90;;;;;;5017836;28;20100;-72
2021/05/27 00:51:46;;;;;;;2.00;1.85;;;9.50;99.90;;;;;;5018728;28;20049;-72
2021/05/27 00:54:13;;;;;;;1.63;1.45;;;9.50;99.90;;;;;;5034000;28;20517;-72
2021/05/27 00:56:41;;;;;;;2.63;1.30;;;9.40;99.90;;;;;;5015714;28;20053;-72
2021/05/27 00:59:08;;;;;;;3.00;1.95;;;9.40;99.90;;;;;;5025091;28;20045;-73
2021/05/27 01:01:34;;;;;;;1.70;1.60;;;9.30;99.90;;;;;;5025536;28;20045;-72
2021/05/27 01:04:01;;;;;;;2.20;1.70;;;9.30;99.90;;;;;;5030562;28;20045;-73
2021/05/27 01:06:27;;;;;;;3.63;2.00;;;9.20;99.90;;;;;;5016534;28;20050;-73
2021/05/27 01:08:55;;;;;;;3.83;2.70;;;9.20;99.90;;;;;;5017384;28;20046;-76
2021/05/27 01:11:21;;;;;;;2.13;1.92;;;9.20;99.90;;;;;;5016761;28;20045;-73
2021/05/27 01:13:49;;;;;;;2.03;1.80;;;9.10;99.90;;;;;;5015306;28;20046;-72
2021/05/27 01:16:16;;;;;;;2.05;1.85;;;9.20;99.90;;;;;;5022135;28;20456;-72
2021/05/27 01:18:43;;;;;;;2.90;2.00;;;9.10;99.90;;;;;;5034478;28;20046;-72
2021/05/27 01:21:09;;;;;;;2.88;2.40;;;9.00;99.90;;;;;;5034445;28;20041;-72
2021/05/27 01:23:37;;;;;;;2.63;2.43;;;9.00;99.90;;;;;;5034478;28;20413;-72
2021/05/27 01:26:05;;;;;;;3.20;2.00;;;9.00;99.90;;;;;;5017735;28;20046;-72
2021/05/27 01:28:33;;;;;;;3.13;2.22;;;8.90;99.90;;;;;;5014940;28;20046;-73
2021/05/27 01:31:02;;;;;;;2.58;2.22;;;8.90;99.90;;;;;;5023352;28;20104;-72
2021/05/27 01:33:28;;;;;;;3.83;2.43;;;8.80;99.90;;;;;;5015085;28;20050;-72
2021/05/27 01:35:56;;;;;;;2.80;2.55;;;8.90;99.90;;;;;;5022661;28;20053;-72
2021/05/27 01:38:23;;;;;;;3.13;2.75;;;8.80;99.90;;;;;;5033713;28;20060;-72
2021/05/27 01:40:52;;;;;;;3.43;2.73;;;8.80;99.90;;;;;;5038298;28;20046;-72
2021/05/27 01:43:20;;;;;;;3.80;3.00;;;8.70;99.90;;;;;;5023890;28;20056;-72
2021/05/27 01:45:46;;;;;;;3.37;3.00;;;8.70;99.90;;;;;;5027853;28;20045;-71
2021/05/27 01:48:12;;;;;;;3.53;2.73;;;8.70;99.90;;;;;;5034137;28;20061;-72
2021/05/27 01:50:40;;;;;;;5.50;2.77;;;8.70;99.90;;;;;;5020064;28;20524;-72
2021/05/27 01:53:07;;;;;;;3.37;3.07;;;8.70;99.90;;;;;;5014094;28;20052;-72
2021/05/27 01:55:34;;;;;;;3.63;2.80;;;8.60;99.90;;;;;;5016283;28;20049;-72
2021/05/27 01:58:01;;;;;;;4.40;3.57;;;8.60;99.90;;;;;;5032354;28;20045;-72
2021/05/27 02:00:28;;;;;;;3.77;3.30;;;8.60;99.90;;;;;;5031899;28;20045;-72
2021/05/27 02:02:54;;;;;;;5.37;3.63;;;8.50;99.90;;;;;;5033732;28;20050;-72
2021/05/27 02:05:20;;;;;;;3.40;3.10;;;8.60;99.90;;;;;;5022278;28;20050;-72
2021/05/27 02:07:47;;;;;;;6.43;3.73;;;8.50;99.90;;;;;;5032945;28;20539;-72
2021/05/27 02:10:13;;;;;;;4.90;3.60;;;8.50;99.90;;;;;;5026336;28;20068;-73
2021/05/27 02:12:39;;;;;;;4.50;3.93;;;8.50;99.90;;;;;;5030643;28;20053;-73
2021/05/27 02:15:08;;;;;;;8.07;4.27;;;8.40;99.90;;;;;;5027438;28;20061;-72
2021/05/27 02:17:35;;;;;;;4.03;3.67;;;8.40;99.90;;;;;;5027229;28;20049;-72
2021/05/27 02:20:01;;;;;;;5.40;4.13;;;8.40;99.90;;;;;;5031399;28;20045;-73
2021/05/27 02:22:27;;;;;;;4.77;3.87;;;8.40;99.90;;;;;;5032633;28;20037;-73
2021/05/27 02:24:54;;;;;;;4.73;4.20;;;8.40;99.90;;;;;;5033233;28;20551;-72
2021/05/27 02:27:20;;;;;;;7.60;5.10;;;8.40;99.90;;;;;;5033046;28;20060;-73
2021/05/27 02:29:46;;;;;;;5.10;4.60;;;8.40;99.90;;;;;;5033228;28;20053;-73
2021/05/27 02:32:13;;;;;;;5.70;4.23;;;8.40;99.90;;;;;;5033419;28;20048;-73
2021/05/27 02:34:39;;;;;;;5.87;4.93;;;8.40;99.90;;;;;;5032969;28;20049;-72
2021/05/27 02:37:05;;;;;;;5.03;4.27;;;8.30;99.90;;;;;;5033055;28;20060;-72
2021/05/27 02:39:31;;;;;;;7.13;4.60;;;8.30;99.90;;;;;;5027382;28;20042;-72
2021/05/27 02:41:58;;;;;;;10.80;5.97;;;8.30;99.90;;;;;;5013365;28;20498;-73
2021/05/27 02:44:24;;;;;;;6.80;4.77;;;8.30;99.90;;;;;;5019298;28;20045;-72
2021/05/27 02:46:50;;;;;;;5.60;4.63;;;8.30;99.90;;;;;;5012784;28;20112;-73
2021/05/27 02:49:17;;;;;;;5.23;4.73;;;8.30;99.90;;;;;;5013353;28;20391;-72
2021/05/27 02:51:43;;;;;;;6.87;4.83;;;8.40;99.90;;;;;;5015191;28;20049;-72
2021/05/27 02:54:10;;;;;;;7.43;5.20;;;8.40;99.90;;;;;;5013704;28;20046;-73
2021/05/27 02:56:36;;;;;;;5.17;4.60;;;8.40;99.90;;;;;;5018499;28;20049;-72
2021/05/27 02:59:03;;;;;;;10.13;4.40;;;8.50;99.90;;;;;;5027952;28;20045;-72
2021/05/27 03:01:29;;;;;;;6.80;4.63;;;8.50;99.90;;;;;;5023545;28;20060;-72
2021/05/27 03:03:55;;;;;;;5.43;4.30;;;8.50;99.90;;;;;;5033113;28;20152;-72
2021/05/27 03:06:22;;;;;;;6.83;4.60;;;8.60;99.90;;;;;;5024701;28;20049;-72
2021/05/27 03:08:48;;;;;;;5.37;4.80;;;8.60;99.90;;;;;;5013286;28;20053;-72
2021/05/27 03:11:14;;;;;;;5.47;4.40;;;8.70;99.90;;;;;;5031301;28;20103;-72
2021/05/27 03:13:40;;;;;;;6.00;4.73;;;8.70;99.90;;;;;;5022949;28;20045;-73
2021/05/27 03:16:07;;;;;;;5.77;4.20;;;8.70;99.90;;;;;;5032250;28;20050;-73
2021/05/27 03:18:33;;;;;;;8.30;5.20;;;8.70;99.90;;;;;;5032726;28;20046;-73
2021/05/27 03:21:00;;;;;;;8.10;5.87;;;8.70;99.90;;;;;;5023266;28;20128;-73
2021/05/27 03:23:27;;;;;;;5.97;5.37;;;8.80;99.90;;;;;;5012868;28;20092;-71
2021/05/27 03:25:53;;;;;;;7.45;5.68;;;8.80;99.90;;;;;;5012691;28;20057;-73
2021/05/27 03:28:20;;;;;;;7.05;4.57;;;8.80;99.90;;;;;;5012721;28;20453;-74
2021/05/27 03:30:46;;;;;;;6.80;5.32;;;8.80;99.90;;;;;;5013032;28;20445;-73
2021/05/27 03:33:12;;;;;;;8.07;5.90;;;8.90;99.90;;;;;;5013503;28;20474;-73
2021/05/27 03:35:39;;;;;;;5.80;4.80;;;8.90;99.90;;;;;;5013915;28;20054;-72
2021/05/27 03:38:05;;;;;;;6.83;5.47;;;8.90;99.90;;;;;;5019517;28;20049;-70
2021/05/27 03:40:32;;;;;;;10.43;6.57;;;8.90;99.90;;;;;;5019333;28;20037;-71
2021/05/27 03:42:58;;;;;;;6.03;4.77;;;9.00;99.90;;;;;;5031445;28;20049;-72
2021/05/27 03:45:26;;;;;;;6.07;5.20;;;9.10;99.90;;;;;;5022062;28;20510;-73
2021/05/27 03:47:53;;;;;;;6.50;5.57;;;9.10;99.90;;;;;;5011727;28;20552;-73
2021/05/27 03:50:22;;;;;;;7.63;5.25;;;9.10;99.90;;;;;;5012396;28;20049;-72
2021/05/27 03:52:49;;;;;;;8.03;5.33;;;9.10;99.90;;;;;;5016394;28;20045;-74
2021/05/27 03:55:19;;;;;;;5.93;4.40;;;9.10;99.90;;;;;;5020800;28;20042;-74
2021/05/27 03:57:47;;;;;;;6.07;5.03;;;9.10;99.90;;;;;;5012067;28;20101;-75
2021/05/27 04:03:02;;;;;;;5.85;5.07;;;9.30;99.90;;;;;;5015193;28;20077;-71
2021/05/27 04:08:13;;;;;;;7.50;5.33;;;9.30;99.90;;;;;;5016320;28;20085;-72
2021/05/27 04:10:39;;;;;;;9.07;5.20;;;9.30;99.90;;;;;;5023899;28;20076;-73
2021/05/27 04:13:06;;;;;;;9.38;5.63;;;9.40;99.90;;;;;;5037074;28;20061;-71
2021/05/27 04:15:34;;;;;;;6.63;4.70;;;9.50;99.90;;;;;;5028847;28;20045;-73
2021/05/27 04:18:03;;;;;;;5.63;5.13;;;9.50;99.90;;;;;;5029120;28;20469;-73
2021/05/27 04:20:31;;;;;;;7.10;6.40;;;9.60;99.90;;;;;;5022479;28;20045;-72
2021/05/27 04:22:58;;;;;;;7.00;5.30;;;9.50;99.90;;;;;;5025978;28;20054;-73
2021/05/27 04:25:26;;;;;;;5.20;4.10;;;9.60;99.90;;;;;;5015746;28;20061;-72
2021/05/27 04:27:53;;;;;;;7.87;5.17;;;9.50;99.90;;;;;;5016194;28;20050;-71
2021/05/27 04:30:22;;;;;;;6.03;5.07;;;9.60;99.90;;;;;;5015918;28;20456;-72
2021/05/27 04:32:56;;;;;;;6.30;4.63;;;9.60;99.90;;;;;;5020692;28;20060;-72
2021/05/27 04:35:28;;;;;;;9.60;5.75;;;9.60;99.90;;;;;;5017287;28;20045;-74
2021/05/27 04:37:55;;;;;;;;;;;9.60;99.90;;;;;;5017251;28;20339;-73
2021/05/27 04:40:21;;;;;;;6.10;4.68;;;9.70;99.90;;;;;;5016442;28;19922;-71
2021/05/27 04:42:47;;;;;;;6.88;5.15;;;9.60;99.90;;;;;;5016862;28;20046;-73
2021/05/27 04:45:14;;;;;;;7.40;5.45;;;9.70;99.90;;;;;;5016092;28;20483;-72
2021/05/27 04:47:41;;;;;;;7.93;5.50;;;9.60;99.90;;;;;;5015876;28;20060;-73
2021/05/27 04:50:11;;;;;;;6.45;4.82;;;9.70;99.90;;;;;;5016425;28;20057;-76
2021/05/27 04:52:38;;;;;;;6.97;5.45;;;9.70;99.90;;;;;;5015440;28;20443;-75
2021/05/27 04:55:07;;;;;;;7.75;5.72;;;9.70;99.90;;;;;;5015617;28;20049;-73
2021/05/27 04:57:33;;;;;;;7.15;5.18;;;9.80;99.90;;;;;;5016762;28;20062;-73
2021/05/27 05:00:00;;;;;;;8.20;5.28;;;9.70;99.90;;;;;;5034398;28;20497;-73
2021/05/27 05:02:26;;;;;;;8.38;4.70;;;9.70;99.90;;;;;;5035039;28;20516;-74
2021/05/27 05:04:54;;;;;;;7.78;5.45;;;9.70;99.90;;;;;;5035108;28;20050;-76
2021/05/27 05:07:20;;;;;;;6.43;4.93;;;9.70;99.90;;;;;;5033894;28;20065;-72
2021/05/27 05:09:47;;;;;;;6.78;5.90;;;9.70;99.90;;;;;;5035049;28;20497;-74
2021/05/27 05:12:13;;;;;;;7.32;5.13;;;9.70;99.90;;;;;;5035275;28;20049;-73
2021/05/27 05:17:20;;;;;;;6.40;4.88;;;9.90;99.90;;;;;;5028118;28;20045;-75
2021/05/27 05:19:46;;;;;;;7.10;5.43;;;10.00;99.90;;;;;;5015030;28;20425;-73
2021/05/27 05:22:14;;;;;;;10.13;5.97;;;10.10;99.90;;;;;;5016001;28;20050;-75
2021/05/27 05:24:40;;;;;;;6.40;4.72;;;10.20;99.90;;;;;;5016167;28;20529;-75
2021/05/27 05:27:07;;;;;;;5.88;4.95;;;10.40;99.90;;;;;;5015133;28;20049;-74
2021/05/27 05:29:33;;;;;;;7.05;5.47;;;10.40;99.90;;;;;;5015152;28;20486;-74
2021/05/27 05:31:59;;;;;;;7.15;5.45;;;10.50;99.90;;;;;;5020660;28;20053;-75
2021/05/27 05:34:25;;;;;;;6.07;4.63;;;10.70;99.90;;;;;;5034641;28;20096;-73
2021/05/27 05:36:51;;;;;;;6.70;5.22;;;10.80;99.90;;;;;;5018764;28;20046;-77
2021/05/27 05:39:21;;;;;;;6.20;4.97;;;10.90;99.90;;;;;;5014825;28;20064;-75
2021/05/27 05:41:47;;;;;;;6.55;5.10;;;11.00;99.90;;;;;;5019674;28;20167;-75
2021/05/27 05:44:15;;;;;;;5.07;4.55;;;11.10;99.90;;;;;;5034146;28;20049;-76
2021/05/27 05:46:41;;;;;;;5.80;3.95;;;11.10;99.90;;;;;;5033701;28;20099;-75
2021/05/27 05:49:08;;;;;;;7.72;5.28;;;11.10;99.90;;;;;;5034346;28;20187;-76
2021/05/27 05:51:34;;;;;;;5.68;4.80;;;11.10;99.90;;;;;;5019599;28;20494;-76
2021/05/27 05:54:00;;;;;;;5.97;5.25;;;11.20;99.90;;;;;;5014386;28;20117;-74
2021/05/27 05:56:27;;;;;;;5.65;5.10;;;11.20;99.90;;;;;;5028007;28;20049;-76
2021/05/27 05:58:53;;;;;;;5.28;4.70;;;11.40;99.90;;;;;;5034291;28;20045;-76
2021/05/27 06:01:20;;;;;;;6.20;4.80;;;11.50;99.90;;;;;;5034276;28;20045;-75
2021/05/27 06:03:46;;;;;;;9.93;6.18;;;11.70;99.90;;;;;;5034171;28;20413;-74
2021/05/27 06:06:12;;;;;;;5.45;4.65;;;12.00;99.90;;;;;;5033993;28;20045;-72
2021/05/27 06:08:38;;;;;;;5.38;4.88;;;12.00;99.90;;;;;;5034183;28;20064;-72
2021/05/27 06:11:04;;;;;;;4.80;4.40;;;12.00;99.90;;;;;;5032180;28;20049;-70
2021/05/27 06:13:31;;;;;;;5.03;4.47;;;11.90;99.90;;;;;;5034070;28;20050;-73
2021/05/27 06:15:58;;;;;;;7.80;5.78;;;11.70;99.90;;;;;;5033959;28;20103;-74
2021/05/27 06:18:24;;;;;;;6.32;5.03;;;11.80;99.90;;;;;;5033601;28;20365;-71
2021/05/27 06:20:50;;;;;;;6.40;5.05;;;11.70;99.90;;;;;;5018907;28;20046;-73
2021/05/27 06:23:17;;;;;;;5.85;4.72;;;11.60;99.90;;;;;;5014045;28;20073;-72
2021/05/27 06:25:43;;;;;;;7.18;5.50;;;11.60;99.90;;;;;;5020447;28;20041;-70
2021/05/27 06:28:09;;;;;;;5.88;4.60;;;11.50;99.90;;;;;;5013844;28;20390;-74
2021/05/27 06:30:36;;;;;;;5.40;4.43;;;11.60;99.90;;;;;;5028167;28;20526;-72
2021/05/27 06:33:03;;;;;;;4.47;3.97;;;11.70;99.90;;;;;;5021992;28;20056;-71
2021/05/27 06:35:30;;;;;;;5.63;4.10;;;11.70;99.90;;;;;;5013672;28;20045;-71
2021/05/27 06:37:56;;;;;;;6.03;4.88;;;11.70;99.90;;;;;;5013583;28;20088;-73
2021/05/27 06:40:25;;;;;;;4.55;4.15;;;11.70;99.90;;;;;;5013367;28;20046;-72
2021/05/27 06:42:51;;;;;;;5.30;4.15;;;11.70;99.90;;;;;;5013436;28;20073;-74
2021/05/27 06:45:19;;;;;;;5.57;4.40;;;12.00;99.90;;;;;;5019640;28;20485;-75
2021/05/27 06:47:49;;;;;;;6.85;4.22;;;12.10;99.90;;;;;;5033127;28;20052;-72
2021/05/27 06:50:16;;;;;;;6.60;4.43;;;12.10;99.90;;;;;;5033255;28;20045;-71
2021/05/27 06:52:43;;;;;;;7.22;4.63;;;12.20;99.90;;;;;;5032915;28;20386;-71
2021/05/27 06:55:10;;;;;;;8.50;4.35;;;12.10;99.90;;;;;;5032775;28;20049;-72
2021/05/27 06:57:36;;;;;;;5.50;4.45;;;12.10;99.90;;;;;;5032063;28;20410;-72
2021/05/27 07:00:04;;;;;;;6.57;4.68;;;11.90;99.90;;;;;;5032768;28;20050;-71
2021/05/27 07:02:31;;;;;;;7.38;5.43;;;11.90;99.90;;;;;;5032923;28;20045;-71
2021/05/27 07:04:58;;;;;;;6.82;5.40;;;11.80;99.90;;;;;;5032919;28;20161;-71
2021/05/27 07:07:24;;;;;;;6.68;5.22;;;11.60;99.90;;;;;;5032222;28;20053;-73
2021/05/27 07:09:50;;;;;;;5.65;4.60;;;11.70;99.90;;;;;;5031281;28;20452;-73
2021/05/27 07:12:17;;;;;;;8.48;5.38;;;11.70;99.90;;;;;;5032605;28;20057;-72
2021/05/27 07:14:44;;;;;;;6.88;4.93;;;11.80;99.90;;;;;;5032702;28;20048;-72
2021/05/27 07:17:10;;;;;;;5.10;4.60;;;11.90;99.90;;;;;;5032297;28;20053;-72
2021/05/27 07:19:36;;;;;;;7.60;4.82;;;11.90;99.90;;;;;;5032476;28;20048;-71
2021/05/27 07:22:03;;;;;;;4.75;4.07;;;12.00;99.90;;;;;;5032267;28;20045;-70
2021/05/27 07:24:29;;;;;;;7.00;4.93;;;12.00;99.90;;;;;;5020883;28;20052;-70
2021/05/27 07:26:55;;;;;;;8.82;4.78;;;12.00;99.90;;;;;;5012375;28;20046;-70
2021/05/27 07:29:21;;;;;;;5.55;4.03;;;12.00;99.90;;;;;;5012604;28;20100;-73
2021/05/27 07:31:48;;;;;;;4.93;4.32;;;12.10;99.90;;;;;;5012473;28;20401;-72
2021/05/27 07:34:14;;;;;;;3.85;3.55;;;12.10;99.90;;;;;;5014483;28;20042;-73
2021/05/27 07:36:40;;;;;;;3.95;3.65;;;12.20;99.90;;;;;;5031010;28;20049;-72
2021/05/27 07:39:07;;;;;;;3.85;3.55;;;12.30;99.90;;;;;;5032281;28;20057;-73
2021/05/27 07:41:33;;;;;;;8.15;4.50;;;12.20;99.90;;;;;;5032487;28;20053;-70
2021/05/27 07:43:59;;;;;;;10.63;7.72;;;12.00;99.90;;;;;;5032228;28;20057;-71
2021/05/27 07:46:25;;;;;;;5.68;4.78;;;12.10;99.90;;;;;;5032306;28;20045;-76
2021/05/27 07:48:54;;;;;;;5.57;4.38;;;12.10;99.90;;;;;;5026951;28;20064;-75
2021/05/27 07:51:20;;;;;;;9.32;5.78;;;11.90;99.90;;;;;;5027740;28;20052;-73
2021/05/27 07:53:46;;;;;;;5.70;4.55;;;11.80;99.90;;;;;;5032967;28;20061;-73
2021/05/27 07:56:14;;;;;;;7.40;5.88;;;11.60;99.90;;;;;;5032145;28;20054;-73
2021/05/27 07:58:40;;;;;;;5.50;4.95;;;11.70;99.90;;;;;;5031926;28;20588;-75
2021/05/27 08:01:06;;;;;;;6.13;4.80;;;11.50;99.90;;;;;;5032299;28;20049;-74
2021/05/27 08:03:32;;;;;;;5.05;4.45;;;11.40;99.90;;;;;;5032742;28;20053;-73
2021/05/27 08:05:58;;;;;;;6.80;4.88;;;11.60;99.90;;;;;;5031981;28;20048;-71
2021/05/27 08:08:24;;;;;;;5.88;4.93;;;11.80;99.90;;;;;;5031945;28;20045;-71
2021/05/27 08:10:54;;;;;;;5.05;4.47;;;12.00;99.90;;;;;;5026668;28;20107;-74
2021/05/27 08:13:21;;;;;;;6.25;5.25;;;12.20;99.90;;;;;;5026072;28;20063;-73
2021/05/27 08:15:47;;;;;;;7.03;6.32;;;12.20;99.90;;;;;;5031584;28;20057;-72
2021/05/27 08:18:13;;;;;;;6.00;4.95;;;12.30;99.90;;;;;;5031683;28;20069;-73
2021/05/27 08:20:40;;;;;;;7.40;5.15;;;12.00;99.90;;;;;;5032702;28;20068;-73
2021/05/27 08:23:07;;;;;;;9.02;6.10;;;11.90;99.90;;;;;;5035427;28;20122;-72
2021/05/27 08:25:33;;;;;;;6.05;5.05;;;12.10;99.90;;;;;;5048815;28;20115;-73
2021/05/27 08:27:59;;;;;;;5.15;4.65;;;12.10;99.90;;;;;;5020031;28;20042;-72
2021/05/27 08:30:26;;;;;;;8.18;5.35;;;12.10;99.90;;;;;;5026458;28;20520;-73
2021/05/27 08:32:53;;;;;;;7.63;5.53;;;12.20;99.90;;;;;;5012341;28;20050;-74
2021/05/27 08:35:20;;;;;;;8.20;5.88;;;12.10;99.90;;;;;;5022685;28;20050;-76
2021/05/27 08:37:47;;;;;;;5.57;4.90;;;11.80;99.90;;;;;;5032677;28;20061;-73
2021/05/27 08:40:14;;;;;;;9.52;7.18;;;11.80;99.90;;;;;;5033258;28;20052;-75
2021/05/27 08:42:42;;;;;;;11.68;8.38;;;11.70;99.90;;;;;;5031904;28;20041;-73
2021/05/27 08:45:09;;;;;;;10.13;5.95;;;11.80;99.90;;;;;;5016022;28;20045;-70
2021/05/27 08:47:37;;;;;;;6.38;4.68;;;11.90;99.90;;;;;;5018601;28;20477;-71
2021/05/27 08:50:05;;;;;;;5.57;5.03;;;12.00;99.90;;;;;;5034646;28;20494;-70
2021/05/27 08:52:31;;;;;;;6.18;4.95;;;12.10;99.90;;;;;;5035594;28;20048;-71
2021/05/27 08:54:57;;;;;;;5.55;4.80;;;12.50;99.90;;;;;;5033511;28;20045;-75
2021/05/27 08:57:24;;;;;;;5.05;4.20;;;13.70;99.90;;;;;;5015569;28;20050;-74
2021/05/27 08:59:50;;;;;;;5.40;4.30;;;14.20;99.90;;;;;;5015886;28;20046;-75
2021/05/27 09:02:16;;;;;;;4.28;3.88;;;14.30;99.90;;;;;;5015992;28;20053;-73
2021/05/27 09:04:43;;;;;;;3.70;3.40;;;14.20;99.90;;;;;;5018493;28;20037;-72
2021/05/27 09:07:12;;;;;;;3.72;2.78;;;13.90;99.90;;;;;;5024889;28;20042;-72
2021/05/27 09:09:53;;;;;;;3.72;3.42;;;14.00;99.90;;;;;;5035533;28;20053;-71
2021/05/27 09:12:28;;;;;;;3.67;3.38;;;13.70;99.90;;;;;;5023204;28;20460;-75
2021/05/27 09:14:55;;;;;;;4.93;3.03;;;13.60;99.90;;;;;;5018979;28;20565;-74
2021/05/27 09:17:22;;;;;;;3.05;2.85;;;13.50;99.90;;;;;;5015062;28;20516;-74
2021/05/27 09:20:20;;;;;;;2.92;2.63;;;13.30;99.90;;;;;;5017864;28;20046;-73
2021/05/27 09:22:46;;;;;;;3.17;2.88;;;13.20;99.90;;;;;;5035182;28;20108;-70
2021/05/27 09:25:28;;;;;;;3.47;3.22;;;13.30;99.90;;;;;;5035571;28;20041;-73
2021/05/27 09:28:01;;;;;;;3.03;2.70;;;13.30;99.90;;;;;;5027328;28;20101;-76
2021/05/27 09:30:27;;;;;;;3.20;2.90;;;13.30;99.90;;;;;;5019509;28;20045;-73
2021/05/27 09:32:53;;;;;;;3.15;2.53;;;13.20;99.90;;;;;;5027655;28;20452;-74
2021/05/27 09:35:21;;;;;;;2.60;2.40;;;13.20;99.90;;;;;;5034518;28;20045;-74
2021/05/27 09:37:49;;;;;;;4.60;2.65;;;13.30;99.90;;;;;;5033853;28;20068;-73
2021/05/27 09:40:31;;;;;;;2.85;2.58;;;13.30;99.90;;;;;;5033315;28;20048;-72
2021/05/27 09:42:59;;;;;;;4.00;2.40;;;13.20;99.90;;;;;;5017535;28;20046;-72
2021/05/27 09:45:26;;;;;;;2.95;2.25;;;13.20;99.90;;;;;;5034686;28;20053;-72
2021/05/27 09:47:53;;;;;;;2.60;2.40;;;13.10;99.90;;;;;;5034369;28;20115;-71
2021/05/27 09:50:30;;;;;;;2.88;1.95;;;13.80;99.90;;;;;;5025774;28;20494;-75
2021/05/27 09:52:57;;;;;;;5.38;1.83;;;15.00;99.90;;;;;;5017747;28;20049;-73
2021/05/27 09:55:23;;;;;;;2.00;1.42;;;15.70;99.90;;;;;;5026284;28;20060;-74
2021/05/27 09:57:49;;;;;;;1.98;1.73;;;15.90;99.90;;;;;;5014110;28;20056;-75
2021/05/27 10:00:29;;;;;;;1.48;1.38;;;15.80;99.90;;;;;;5027753;28;20048;-74
2021/05/27 10:02:57;;;;;;;2.50;1.17;;;15.90;99.90;;;;;;5028069;28;20104;-75
2021/05/27 10:05:24;;;;;;;1.83;1.35;;;15.40;99.90;;;;;;5020984;28;20045;-72
2021/05/27 10:07:52;;;;;;;2.45;1.10;;;15.20;99.90;;;;;;5033865;28;20103;-71
2021/05/27 10:10:19;;;;;;;1.95;1.17;;;14.90;99.90;;;;;;5014488;28;20050;-71
2021/05/27 10:12:47;;;;;;;1.40;1.30;;;14.70;99.90;;;;;;5014958;28;20042;-71
2021/05/27 10:15:15;;;;;;;1.13;0.90;;;14.50;99.90;;;;;;5015240;28;20046;-71
2021/05/27 10:17:43;;;;;;;1.33;0.80;;;14.20;99.90;;;;;;5017674;28;20409;-71
2021/05/27 10:20:11;;;;;;;2.85;1.85;;;14.20;99.90;;;;;;5034326;28;20049;-71
2021/05/27 10:22:39;;;;;;;1.50;1.20;;;14.10;99.90;;;;;;5034131;28;20099;-71
2021/05/27 10:25:08;;;;;;;3.38;1.60;;;14.30;99.90;;;;;;5025711;28;20066;-71
2021/05/27 10:27:35;;;;;;;3.13;2.05;;;14.50;99.90;;;;;;5014185;28;20077;-71
2021/05/27 10:30:04;;;;;;;1.85;1.65;;;14.50;99.90;;;;;;5014485;28;20052;-71
2021/05/27 10:32:30;;;;;;;1.75;1.50;;;14.40;99.90;;;;;;5014288;28;20049;-71
2021/05/27 10:34:56;;;;;;;1.58;1.48;;;14.90;99.90;;;;;;5014412;28;20054;-71
2021/05/27 10:37:50;;;;;;;3.03;2.83;;;15.20;99.90;;;;;;5016449;28;20065;-71
2021/05/27 10:40:37;;;;;;;2.13;1.45;;;15.90;99.90;;;;;;5014001;28;20054;-72
2021/05/27 10:43:12;;;;;;;2.55;2.08;;;17.00;99.90;;;;;;5015117;28;20038;-71
2021/05/27 10:46:06;;;;;;;1.02;1.02;;;17.70;99.60;;;;;;5027354;28;20521;-72
2021/05/27 10:48:39;;;;;;;1.10;1.00;;;18.10;96.80;;;;;;5014174;28;20123;-72
2021/05/27 10:51:09;;;;;;;1.42;1.30;;;17.40;95.70;;;;;;5013967;28;20056;-72
2021/05/27 10:53:58;;;;;;;1.00;1.00;;;16.70;97.30;;;;;;5014052;28;20045;-72
2021/05/27 10:56:44;;;;;;;3.15;1.50;;;16.00;97.40;;;;;;5028266;28;20095;-71
2021/05/27 10:59:15;;;;;;;1.48;0.93;;;16.10;98.10;;;;;;5033041;28;20065;-73
2021/05/27 11:01:57;;;;;;;1.20;0.98;;;16.00;97.90;;;;;;5032855;28;20127;-74
2021/05/27 11:04:29;;;;;;;2.28;1.73;;;16.20;97.50;;;;;;5032766;28;20042;-73
2021/05/27 11:07:15;;;;;;;2.83;1.80;;;16.40;96.60;;;;;;5032324;28;20056;-75
2021/05/27 11:09:42;;;;;;;1.15;1.08;;;16.70;96.40;;;;;;5023331;28;20060;-73
2021/05/27 11:12:36;;;;;;;1.88;1.30;;;17.10;95.10;;;;;;5012801;28;20567;-71
2021/05/27 11:15:20;;;;;;;0.90;0.90;;;17.10;94.60;;;;;;5013371;28;20137;-75
2021/05/27 11:18:04;;;;;;;2.28;1.02;;;16.60;95.90;;;;;;5013275;28;20140;-74
2021/05/27 11:20:31;;;;;;;2.50;1.85;;;16.40;97.30;;;;;;5013546;28;20088;-72
2021/05/27 11:23:16;;;;;;;0.98;0.88;;;16.00;98.50;;;;;;5014011;28;20089;-72
2021/05/27 11:25:43;;;;;;;1.40;1.30;;;16.00;98.40;;;;;;5014111;28;20042;-70
2021/05/27 11:28:33;;;;;;;1.25;1.00;;;16.20;98.30;;;;;;5012590;28;20516;-71
2021/05/27 11:30:59;;;;;;;2.88;1.13;;;16.00;98.30;;;;;;5012894;28;20105;-71
2021/05/27 11:33:31;;;;;;;1.10;1.00;;;15.70;98.90;;;;;;5013094;28;20049;-73
2021/05/27 11:35:59;;;;;;;1.25;1.15;;;15.80;98.70;;;;;;5014295;28;20050;-76
2021/05/27 11:38:28;;;;;;;1.92;1.10;;;16.00;97.00;;;;;;5013290;28;20049;-76
2021/05/27 11:40:58;;;;;;;0.75;0.75;;;16.10;97.10;;;;;;5024744;28;20048;-71
2021/05/27 11:43:29;;;;;;;0.88;0.77;;;16.80;96.10;;;;;;5028135;28;20556;-73
2021/05/27 11:45:57;;;;;;;2.42;1.23;;;16.60;95.40;;;;;;5013144;28;20049;-71
2021/05/27 11:48:25;;;;;;;0.95;0.88;;;16.90;94.80;;;;;;5012862;28;20541;-73
2021/05/27 11:50:52;;;;;;;1.05;0.95;;;17.40;92.90;;;;;;5012854;28;20159;-72
2021/05/27 11:53:21;;;;;;;1.00;0.68;;;17.30;93.70;;;;;;5015120;28;20046;-71
2021/05/27 11:55:53;;;;;;;1.55;1.00;;;17.70;92.60;;;;;;5016233;28;20050;-73
2021/05/27 11:58:34;;;;;;;0.60;0.47;;;17.70;93.30;;;;;;5018038;28;20045;-73
2021/05/27 12:01:17;;;;;;;0.80;0.80;;;17.40;91.40;;;;;;5031945;28;20405;-72
2021/05/27 12:04:07;;;;;;;0.50;0.50;;;17.10;91.60;;;;;;5032527;28;20046;-73
2021/05/27 12:06:47;;;;;;;0.65;0.65;;;17.10;92.20;;;;;;5032045;28;20052;-73
2021/05/27 12:09:22;;;;;;;1.70;0.80;;;18.30;90.30;;;;;;5031683;28;20128;-73
2021/05/27 12:11:48;;;;;;;0.77;0.60;;;18.40;88.90;;;;;;5032292;28;20314;-72
2021/05/27 12:14:15;;;;;;;2.28;1.27;;;17.90;90.00;;;;;;5032473;28;20079;-76
2021/05/27 12:16:41;;;;;;;1.08;0.55;;;17.70;90.70;;;;;;5031965;28;20049;-74
2021/05/27 12:19:11;;;;;;;0.63;0.60;;;17.50;91.20;;;;;;5031626;28;20103;-75
2021/05/27 12:21:38;;;;;;;0.52;0.35;;;17.50;90.90;;;;;;5032230;28;20045;-75
2021/05/27 12:24:05;;;;;;;0.95;0.52;;;17.00;92.20;;;;;;5035116;28;20046;-71
2021/05/27 12:26:31;;;;;;;0.40;0.40;;;16.60;92.40;;;;;;5036012;28;20052;-74
2021/05/27 12:28:58;;;;;;;2.88;0.90;;;16.00;96.20;;;;;;5036247;28;20049;-75
2021/05/27 12:31:30;;;;;;;1.35;0.65;;;15.60;98.00;;;;;;5019796;28;20046;-73
2021/05/27 12:34:01;;;;;;;1.20;1.10;;;15.00;99.90;;;;;;5029597;28;20537;-74
2021/05/27 12:36:27;;;;;;;1.65;1.45;;;14.20;99.90;;;;;;5035626;28;20096;-73
2021/05/27 12:38:53;;;;;;;1.80;1.50;;;13.70;99.90;;;;;;5035213;28;20083;-73
2021/05/27 12:41:19;;;;;;;1.30;1.15;;;13.10;99.90;;;;;;5035714;28;20405;-73
2021/05/27 12:43:48;;;;;;;3.20;1.17;;;12.80;99.90;;;;;;5035849;28;20045;-74
2021/05/27 12:46:16;;;;;;;1.92;1.65;;;12.80;99.90;;;;;;5035327;28;20045;-73
2021/05/27 12:48:50;;;;;;;1.63;1.00;;;13.10;99.90;;;;;;5034689;28;20055;-73
2021/05/27 12:51:17;;;;;;;6.57;3.70;;;13.30;99.90;;;;;;5035149;28;20041;-74
2021/05/27 12:53:50;;;;;;;3.40;2.35;;;13.60;99.90;;;;;;5035628;28;20056;-74
2021/05/27 12:56:18;;;;;;;1.75;0.80;;;14.20;99.90;;;;;;5035298;28;20047;-74
2021/05/27 12:58:46;;;;;;;2.58;1.95;;;14.80;99.90;;;;;;5035199;28;20136;-74
2021/05/27 13:01:14;;;;;;;1.33;1.23;;;15.10;99.90;;;;;;5035152;28;20045;-74
2021/05/27 13:03:45;;;;;;;1.55;1.15;;;15.50;99.90;;;;;;5033393;28;20115;-75